Pagrindinis puslapis
METAR-TAF:

METAR-TAF

Oro uostai :

Sørkjosen, Norvegija

platuma: 69-47N, ilguma: 020-58E, Aukštis: 0 m

Dabartinis oras

Ataskaita buvo paskelbta 30 minutes, ne 12:20 UTC
Vėjas 16 kt iš Rytų/Pietryčių
Temperatūra -1°C
Drėgmė 40%
Slėgis 1023 hPa
Matomumas 10 km arba daugiau

METAR: ENSR 201220Z AUTO 12016KT 9999 NCD M01/M13 Q1023 RMK WIND RWY 32 12016KT WIND 1119FT 15017KT

Laikas: 14:50 (12:50 UTC)

Prognozė

Ataskaita buvo paskelbta 25 valandos ir 50 minutes, ne 11:00 UTC
Prognozė galioja nuo 19 metu 12 UTC su 19 metu 19 UTC
Vėjas 22 kt iš Pietų/Pietryčių
Matomumas 10 km arba daugiau
nėra debesų žemiau 1500 m ir nėra kamuolinių lietaus debesų
Laikinai
nuo 19 metu 13 UTC su 19 metu 19 UTC
Vėjas 12 kt iš Pietų/Pietryčių

TAF: ENSR 191100Z 1912/1919 15022KT CAVOK TEMPO 1913/1919 15012KT

Orai ataskaitas ir orų prognozės (METAR, TAF).

turimą stotys yra geltonos ir raudonos taškus žemėlapyje.

Perkelti pele per norėdami pamatyti stoties vardą.

Tada spustelėkite, norėdami matyti oro stebėjimo ir prognozės.

Norėdami pakeisti žemėlapį: spustelėkite ant žalios mygtukų su juodo kryžiaus žemyn,; žalią mygtuką su brūkšneliu, jei norite nutolinti; arba žalių rodyklių gretimoms žemėlapius.


METAR-TAF: